Brookville, Ohio
Current Conditions -  °F | °C
As of 3:56 PM on Thursday 27 Nov 2014 (Local Time) from KDAY Reporting Station
Overcast Overcast  
Wind Chill: 21°   Ceiling: 1400
Heat Index: 32°   Visibility: 8mi
Dew Point: 25°   Wind: 16mph
Humidity: 75%   Direction: 300°WNW
Pressure: 30.27"   Gusts: NA
Location:  39.84°N, 84.41°W
Report Text: KDAY 272056Z 30014KT 8SM BKN014 BKN021 OVC029 00/M04 A3027 RMK AO2 SNE54 SLP260 P0000 60000 T00001039 53007
Loading
Personal Weather Stations






























Interactive Weather Map New forecast layout! Learn more

10-Day Weather Forecast

Advertisements
Track Severe Weather on mobile